Latest Weather Observations for Ivanhoe Airport

IDN60801

Issued at 6:23 pm EST Saturday 9 May 2026 (issued every 10 minutes, with the page automatically refreshed every 10 minutes)

About weather observations | Map of weather stations | Latest weather observations for NSW | Other Formats
Station Details ID: 049000 Name: IVANHOE AERODROME AWS Lat: -32.88 Lon: 144.31 Height: 100.0 m
Data from the previous 72 hours. | See also: Recent months at Ivanhoe Airport
Date/Time
EST
Temp
°C
App
Temp
°C
Dew
Point
°C
Rel
Hum
%
Delta-T
°C
Wind Press
QNH
hPa
Press
MSL
hPa
Rain since
9am
mm
Dir  Spd
km/h
Gust
km/h
Spd
kts
Gust
kts
09/06:00pm 16.0 12.4 8.2 60 3.9 SSW 17 24 9 13 1026.0 1026.0 0.0
09/05:30pm 17.0 14.0 7.9 55 4.6 SSW 13 20 7 11 1025.7 1025.7 0.0
09/05:00pm 18.1 14.7 7.5 50 5.4 SSW 15 20 8 11 1025.6 1025.6 0.0
09/04:30pm 18.5 15.0 7.3 48 5.7 SSW 15 22 8 12 1025.5 1025.5 0.0
09/04:00pm 19.1 16.4 7.2 46 6.0 SW 11 19 6 10 1025.4 1025.4 0.0
09/03:30pm 18.7 15.6 7.2 47 5.8 S 13 22 7 12 1025.4 1025.4 0.0
09/03:00pm 19.0 15.3 7.8 48 5.7 SSW 17 28 9 15 1025.5 1025.5 0.0
09/02:30pm 18.8 15.4 7.6 48 5.7 SSW 15 24 8 13 1025.5 1025.5 0.0
09/02:00pm 18.3 15.0 8.0 51 5.3 SW 15 24 8 13 1025.7 1025.7 0.0
09/01:30pm 18.3 15.5 8.6 53 5.0 SW 13 22 7 12 1026.1 1026.1 0.0
09/01:00pm 17.7 14.9 8.6 55 4.7 SSW 13 24 7 13 1026.5 1026.5 0.0
09/12:30pm 17.1 13.2 8.5 57 4.4 SSW 19 28 10 15 1026.9 1026.8 0.0
09/12:00pm 16.8 13.5 8.2 57 4.4 S 15 20 8 11 1027.4 1027.3 0.0
09/11:30am 17.0 14.2 8.7 58 4.3 SSW 13 24 7 13 1027.7 1027.6 0.0
09/11:00am 16.2 12.7 8.7 61 3.8 S 17 20 9 11 1027.8 1027.7 0.0
09/10:30am 15.5 12.7 8.7 64 3.5 SSW 13 19 7 10 1028.1 1028.0 0.0
09/10:00am 14.9 12.2 9.1 68 3.0 S 13 17 7 9 1028.1 1028.0 0.0
09/09:30am 13.6 10.5 8.9 73 2.4 S 15 20 8 11 1028.2 1028.1 0.0
09/09:00am 12.7 9.8 9.5 81 1.6 S 15 19 8 10 1028.2 1028.1 0.0
09/08:30am 10.6 9.1 10.4 99 0.1 SSW 9 13 5 7 1027.9 1027.8 0.0
09/08:00am 9.2 7.7 9.1 99 0.0 SW 7 13 4 7 1027.6 1027.5 0.0
09/07:30am 8.1 5.9 8.0 99 0.0 SW 9 11 5 6 1027.3 1027.2 0.0
09/07:00am 7.7 5.4 7.6 99 0.0 SW 9 11 5 6 1027.0 1026.9 0.0
09/06:30am 7.9 5.7 7.8 99 0.0 SW 9 11 5 6 1026.5 1026.5 0.0
09/06:00am 8.0 6.2 7.9 99 0.0 WSW 7 9 4 5 1026.1 1026.1 0.0
09/05:30am 8.5 6.8 8.4 99 0.0 SW 7 9 4 5 1025.8 1025.8 0.0
09/05:00am 9.1 7.1 8.8 98 0.1 SW 9 13 5 7 1025.6 1025.6 0.0
09/04:30am 9.4 7.4 8.5 94 0.4 WSW 9 13 5 7 1025.5 1025.5 0.0
09/04:00am 9.8 7.3 8.2 90 0.8 SW 11 17 6 9 1025.5 1025.5 0.0
09/03:30am 10.3 7.8 8.4 88 0.9 SW 11 13 6 7 1025.6 1025.6 0.0
09/03:00am 10.7 8.3 8.5 86 1.1 SW 11 13 6 7 1025.6 1025.6 0.0
09/02:30am 11.0 8.6 8.6 85 1.2 SW 11 15 6 8 1025.7 1025.7 0.0
09/02:00am 10.7 8.6 8.1 84 1.3 WSW 9 11 5 6 1025.9 1025.9 0.0
09/01:30am 11.1 9.0 8.1 82 1.5 SW 9 11 5 6 1026.1 1026.1 0.0
09/01:00am 11.6 9.5 8.1 79 1.7 SSW 9 11 5 6 1026.2 1026.2 0.0
09/12:30am 12.5 10.4 8.4 76 2.0 SSW 9 13 5 7 1026.2 1026.2 0.0
09/12:00am 13.6 10.8 8.4 71 2.6 SSW 13 17 7 9 1026.2 1026.2 0.0
 
Date/Time
EST
Temp
°C
App
Temp
°C
Dew
Point
°C
Rel
Hum
%
Delta-T
°C
Wind Press
QNH
hPa
Press
MSL
hPa
Rain since
9am
mm
Dir  Spd
km/h
Gust
km/h
Spd
kts
Gust
kts
08/11:30pm 14.5 11.7 8.7 68 2.9 SSW 13 17 7 9 1026.3 1026.3 0.0
08/11:00pm 14.8 12.9 9.0 68 3.0 S 9 15 5 8 1026.4 1026.4 0.0
08/10:30pm 15.1 12.8 9.0 67 3.1 S 11 17 6 9 1026.3 1026.3 0.0
08/10:00pm 15.3 13.0 9.0 66 3.2 SSW 11 15 6 8 1026.3 1026.3 0.0
08/09:30pm 15.3 12.9 8.8 65 3.3 SSW 11 15 6 8 1026.2 1026.2 0.0
08/09:00pm 15.7 13.8 8.9 64 3.5 SSW 9 11 5 6 1026.2 1026.2 0.0
08/08:30pm 16.0 13.6 8.7 62 3.7 SSW 11 15 6 8 1026.1 1026.1 0.0
08/08:00pm 16.0 13.6 8.7 62 3.7 SSW 11 15 6 8 1026.0 1026.0 0.0
08/07:30pm 16.1 13.3 8.6 61 3.8 SSW 13 17 7 9 1025.7 1025.7 0.0
08/07:00pm 16.5 13.3 8.5 59 4.1 SSW 15 20 8 11 1025.6 1025.6 0.0
08/06:30pm 16.9 13.4 8.6 58 4.3 S 17 24 9 13 1025.5 1025.5 0.0
08/06:00pm 17.3 14.1 8.4 56 4.6 S 15 22 8 12 1025.1 1025.1 0.0
08/05:30pm 17.2 13.9 8.1 55 4.7 S 15 22 8 12 1025.0 1025.0 0.0
08/05:00pm 17.5 13.3 7.5 52 5.0 S 19 26 10 14 1024.8 1024.8 0.0
08/04:30pm 18.9 14.5 7.4 47 5.9 SW 20 32 11 17 1024.5 1024.5 0.0
08/04:00pm 19.9 16.2 7.9 46 6.2 SSW 17 26 9 14 1024.4 1024.4 0.0
08/03:30pm 19.1 14.8 7.2 46 6.0 SSW 19 28 10 15 1024.4 1024.4 0.0
08/03:00pm 19.3 15.2 8.6 50 5.6 SW 20 33 11 18 1024.4 1024.4 0.0
08/02:30pm 19.2 15.3 8.5 50 5.6 SW 19 28 10 15 1024.5 1024.5 0.0
08/02:00pm 17.9 13.3 8.2 53 5.0 SW 22 32 12 17 1024.8 1024.8 0.0
08/01:30pm 18.9 14.8 8.8 52 5.3 WSW 20 32 11 17 1025.2 1025.2 0.0
08/01:00pm 17.5 13.6 8.6 56 4.6 WSW 19 28 10 15 1025.6 1025.6 0.0
08/12:30pm 16.6 12.5 8.8 60 4.0 SW 20 30 11 16 1026.3 1026.3 0.0
08/12:00pm 15.3 11.4 8.5 64 3.4 SW 19 30 10 16 1027.2 1027.1 0.0
08/11:30am 14.7 10.7 8.2 65 3.3 SW 19 30 10 16 1027.7 1027.6 0.0
08/11:00am 14.1 9.8 7.9 66 3.1 SSW 20 32 11 17 1028.1 1028.0 0.0
08/10:30am 14.1 8.3 8.1 67 3.0 SSW 28 39 15 21 1028.1 1028.0 0.0
08/10:00am 13.8 9.2 8.2 69 2.8 SW 22 35 12 19 1028.1 1028.0 0.0
08/09:30am 12.4 7.6 7.3 71 2.5 SW 22 33 12 18 1028.3 1028.2 0.0
08/09:00am 12.2 8.3 7.3 72 2.4 SW 17 30 9 16 1028.1 1028.0 0.0
08/08:30am 11.2 7.6 6.9 75 2.1 WSW 15 22 8 12 1027.7 1027.6 0.0
08/08:00am 9.4 6.0 5.8 78 1.6 WSW 13 19 7 10 1027.6 1027.5 0.0
08/07:30am 8.2 5.0 5.1 81 1.4 W 11 15 6 8 1027.1 1027.0 0.0
08/07:00am 8.1 4.9 5.2 82 1.3 WSW 11 17 6 9 1027.1 1027.0 0.0
08/06:30am 7.8 4.6 4.9 82 1.3 WSW 11 17 6 9 1027.1 1027.0 0.0
08/06:00am 7.7 4.3 4.1 78 1.6 WSW 11 15 6 8 1027.0 1026.9 0.0
08/05:30am 7.8 4.0 3.8 76 1.7 WSW 13 19 7 10 1026.7 1026.7 0.0
08/05:00am 7.5 3.2 3.4 75 1.7 WSW 15 20 8 11 1026.7 1026.7 0.0
08/04:30am 7.7 3.4 3.4 74 1.8 SW 15 20 8 11 1026.6 1026.6 0.0
08/04:00am 7.8 3.4 2.9 71 2.1 WSW 15 20 8 11 1026.5 1026.5 0.0
08/03:30am 8.4 3.6 2.8 68 2.4 SW 17 24 9 13 1026.6 1026.6 0.0
08/03:00am 8.6 3.8 2.4 65 2.6 SW 17 24 9 13 1026.6 1026.6 0.0
08/02:30am 8.7 4.2 2.3 64 2.7 WSW 15 22 8 12 1026.9 1026.8 0.0
08/02:00am 8.4 4.2 1.8 63 2.7 WSW 13 17 7 9 1027.3 1027.2 0.0
08/01:30am 7.6 3.7 1.2 64 2.6 W 11 17 6 9 1027.4 1027.3 0.0
08/01:00am 7.5 3.6 1.4 65 2.5 W 11 13 6 7 1027.4 1027.3 0.0
08/12:30am 7.0 3.5 1.3 67 2.3 W 9 11 5 6 1027.2 1027.1 0.0
08/12:00am 6.6 2.7 0.9 67 2.3 WNW 11 11 6 6 1027.3 1027.2 0.0
 
Date/Time
EST
Temp
°C
App
Temp
°C
Dew
Point
°C
Rel
Hum
%
Delta-T
°C
Wind Press
QNH
hPa
Press
MSL
hPa
Rain since
9am
mm
Dir  Spd
km/h
Gust
km/h
Spd
kts
Gust
kts
07/11:30pm 6.8 3.2 0.9 66 2.4 WNW 9 13 5 7 1027.3 1027.2 0.0
07/11:00pm 7.0 3.1 0.9 65 2.4 WNW 11 13 6 7 1027.3 1027.2 0.0
07/10:30pm 7.6 4.0 0.8 62 2.7 W 9 11 5 6 1027.6 1027.5 0.0
07/10:00pm 7.8 4.2 0.8 61 2.8 WNW 9 11 5 6 1027.6 1027.5 0.0
07/09:30pm 8.3 4.7 0.8 59 3.0 W 9 11 5 6 1027.6 1027.5 0.0
07/09:00pm 8.9 5.0 0.9 57 3.2 SW 11 13 6 7 1027.5 1027.4 0.0
07/08:30pm 9.1 5.5 0.8 56 3.4 WSW 9 11 5 6 1027.5 1027.4 0.0
07/08:00pm 9.7 6.1 0.6 53 3.7 SW 9 11 5 6 1027.4 1027.3 0.0
07/07:30pm 10.7 6.7 0.7 50 4.1 SW 11 15 6 8 1027.4 1027.3 0.0
07/07:00pm 11.4 7.0 0.5 47 4.5 SW 13 20 7 11 1027.2 1027.1 0.0
07/06:30pm 11.7 7.3 0.5 46 4.7 SW 13 20 7 11 1026.9 1026.8 0.0
07/06:00pm 12.3 7.1 0.1 43 5.0 SSW 17 28 9 15 1026.5 1026.5 0.0
07/05:30pm 13.0 7.1 -1.0 38 5.7 SW 20 33 11 18 1026.3 1026.3 0.0
07/05:00pm 13.8 7.8 -1.4 35 6.1 SSW 20 32 11 17 1026.0 1026.0 0.0
07/04:30pm 14.4 7.9 -2.1 32 6.6 SSW 22 35 12 19 1025.8 1025.8 0.0
07/04:00pm 14.9 9.0 -2.1 31 6.8 SSW 19 30 10 16 1025.8 1025.8 0.0
07/03:30pm 14.6 8.2 -1.9 32 6.7 SSW 22 37 12 20 1025.7 1025.7 0.0
07/03:00pm 14.3 7.1 -1.7 33 6.5 SSW 26 44 14 24 1025.7 1025.7 0.0
07/02:30pm 14.8 7.3 -1.3 33 6.6 SW 28 37 15 20 1025.8 1025.8 0.0
07/02:00pm 14.4 7.6 -1.6 33 6.5 SSW 24 39 13 21 1025.7 1025.7 0.0
07/01:30pm 14.5 7.7 -1.6 33 6.6 SSW 24 35 13 19 1025.8 1025.8 0.0
07/01:00pm 13.8 7.1 -1.4 35 6.1 SW 24 33 13 18 1026.1 1026.1 0.0
07/12:30pm 13.8 7.2 -0.3 38 5.9 SSW 24 37 13 20 1026.3 1026.3 0.0
07/12:00pm 13.8 6.8 -0.3 38 5.8 SSW 26 39 14 21 1026.6 1026.6 0.0
07/11:30am 13.1 6.2 0.2 41 5.4 SSW 26 37 14 20 1026.9 1026.8 0.0
07/11:00am 12.4 5.1 -0.1 42 5.1 SSW 28 39 15 21 1027.0 1026.9 0.0
07/10:30am 12.2 5.0 0.6 45 4.9 SW 28 43 15 23 1026.9 1026.8 0.0
07/10:00am 11.1 3.2 0.8 49 4.3 SSW 32 44 17 24 1026.5 1026.5 0.0
07/09:30am 11.1 3.6 1.4 51 4.1 SSW 30 46 16 25 1026.5 1026.5 0.0
07/09:03am 10.5 2.6 1.3 53 3.8 SSW 32 50 17 27 1026.1 1026.1 0.0
07/09:00am 10.3 2.5 1.4 54 3.7 SSW 32 43 17 23 1026.1 1026.1 0.0
07/08:30am 9.6 4.2 2.7 62 3.0 SW 20 33 11 18 1025.6 1025.6 0.0
07/08:00am 8.6 3.8 2.6 66 2.5 SW 17 24 9 13 1025.2 1025.2 0.0
07/07:30am 7.9 3.1 2.4 68 2.3 SW 17 22 9 12 1024.8 1024.8 0.0
07/07:00am 7.9 3.5 2.6 69 2.2 SW 15 22 8 12 1024.4 1024.4 0.0
07/06:30am 8.1 4.1 2.6 68 2.3 SW 13 20 7 11 1024.0 1024.0 0.0
07/06:00am 8.3 3.8 2.1 65 2.6 SW 15 22 8 12 1023.7 1023.7 0.0
07/05:30am 9.1 3.8 2.0 61 3.0 SSW 19 32 10 17 1023.5 1023.5 0.0
07/05:00am 10.0 4.4 3.7 65 2.8 SW 22 30 12 16 1023.2 1023.2 0.0
07/04:30am 11.1 4.1 3.9 61 3.2 SSW 30 44 16 24 1022.8 1022.8 0.0
07/04:17am 11.4 5.0 5.3 66 2.8 SW 28 48 15 26 1022.5 1022.5 0.0
07/04:00am 12.1 6.8 6.6 69 2.6 SSW 24 37 13 20 1022.4 1022.4 0.0
07/03:30am 12.4 8.2 8.3 76 2.0 SSW 20 32 11 17 1022.1 1022.1 0.0
07/03:00am 12.3 7.9 8.8 79 1.7 SSW 22 32 12 17 1022.0 1022.0 0.0
07/02:30am 12.3 6.7 8.8 79 1.8 SSW 28 43 15 23 1021.9 1021.9 0.0
07/02:22am 12.3 6.0 9.0 80 1.7 SSW 32 50 17 27 1021.8 1021.8 0.0
07/02:14am 13.1 8.2 8.4 73 2.4 SW 24 41 13 22 1021.7 1021.7 0.0
07/02:00am 13.7 10.7 7.9 68 2.9 WSW 13 20 7 11 1021.1 1021.1 0.0
07/01:30am 13.2 10.6 7.6 69 2.8 WSW 11 17 6 9 1020.9 1020.9 0.0
07/01:00am 12.6 10.3 7.3 70 2.6 W 9 13 5 7 1020.8 1020.8 0.0
07/12:30am 12.0 9.7 7.5 74 2.2 WNW 9 11 5 6 1020.9 1020.9 0.0
07/12:00am 11.1 8.7 7.0 76 2.0 WNW 9 11 5 6 1021.0 1021.0 0.0
 
Date/Time
EST
Temp
°C
App
Temp
°C
Dew
Point
°C
Rel
Hum
%
Delta-T
°C
Wind Press
QNH
hPa
Press
MSL
hPa
Rain since
9am
mm
Dir  Spd
km/h
Gust
km/h
Spd
kts
Gust
kts
06/11:30pm 10.6 7.7 6.7 77 1.8 WNW 11 13 6 7 1021.1 1021.1 0.0
06/11:00pm 9.8 7.2 6.0 77 1.8 WNW 9 11 5 6 1021.1 1021.1 0.0
06/10:30pm 10.2 7.2 6.2 76 1.9 NW 11 15 6 8 1021.3 1021.3 0.0
06/10:00pm 10.3 7.3 6.1 75 1.9 NW 11 13 6 7 1021.4 1021.4 0.0
06/09:30pm 10.4 7.7 5.8 73 2.1 NW 9 11 5 6 1021.3 1021.3 0.0
06/09:00pm 10.8 8.2 6.0 72 2.2 WNW 9 11 5 6 1021.3 1021.3 0.0
06/08:30pm 11.4 8.7 5.7 68 2.7 WNW 9 13 5 7 1021.2 1021.2 0.0
06/08:00pm 11.7 9.0 5.6 66 2.8 WNW 9 9 5 5 1021.0 1021.0 0.0
06/07:30pm 12.2 9.5 5.6 64 3.1 W 9 11 5 6 1021.0 1021.0 0.0
06/07:00pm 13.1 10.8 5.5 60 3.6 W 7 9 4 5 1021.0 1021.0 0.0
06/06:30pm 14.3 11.6 5.7 56 4.1 W 9 13 5 7 1020.9 1020.9 0.0

Other formats

Comma delimited format used in spreadsheet applications
http://www.bom.gov.au/fwo/IDN60801/IDN60801.95697.axf

JavaScript Object Notation format (JSON) in row-major order
http://www.bom.gov.au/fwo/IDN60801/IDN60801.95697.json

Data quality

Most of these data are generated automatically and are frequently updated. Quality checks on data are not normally performed. It is possible for incorrect values to appear. Refer to information at About Latest Weather Observations and please check the disclaimer before using these data.